KHTS/HTS METAR and TAF weather

Enter ICAO airport designator
Station Type Date Time Source
KHTS METAR 2019/04/18 21:51 UTC NOAA

KHTS 182151Z 22010KT 10SM CLR 28/07 A2965 RMK AO2 SLP033 T02780072


Station Type Date Time Source
KHTS Decoded METAR 2019/04/18 21:51 UTC NOAA

TRI-STATE AIRPORT, WV, United States (KHTS) 38-22N 082-33W 254M
Apr 18, 2019 - 05:51 PM EDT / 2019.04.18 2151 UTC
Wind: from the SW (220 degrees) at 12 MPH (10 KT):0
Visibility: 10 mile(s):0
Sky conditions: clear
Temperature: 82.0 F (27.8 C)
Dew Point: 45.0 F (7.2 C)
Relative Humidity: 27%
Pressure (altimeter): 29.65 in. Hg (1004 hPa)
ob: KHTS 182151Z 22010KT 10SM CLR 28/07 A2965 RMK AO2 SLP033 T02780072
cycle: 22

Station Type Date Time Source
KHTS TAF 2019/04/18 18:33 UTC NOAA

TAF KHTS 181731Z 1818/1918 21012G22KT P6SM FEW180
FM190900 17009G17KT P6SM OVC060
FM191200 17009G18KT 5SM -SHRA OVC040
FM191600 21008KT 4SM -SHRA OVC018

Example: see airport list